Time;durP1;ratioP1;P1;durP2;ratioP2;P2;SDS_P1;SDS_P2;PMS_P1;PMS_P2;Temp;Humidity;BMP_temperature;BMP_pressure;BME280_temperature;BME280_humidity;BME280_pressure;Samples;Min_cycle;Max_cycle;Signal;HPM_P1;HPM_P2
2021/11/19 00:01:50;;;;;;;13.20;10.40;;;8.40;74.80;;;7.71;59.58;95847.22;4944058;28;20227;-92
2021/11/19 00:04:18;;;;;;;13.63;9.90;;;8.50;74.80;;;7.70;59.48;95843.78;4943275;28;20226;-91
2021/11/19 00:06:45;;;;;;;14.88;10.32;;;8.50;74.80;;;7.76;59.46;95844.97;4943862;28;20234;-92
2021/11/19 00:09:15;;;;;;;13.02;10.32;;;8.50;74.80;;;7.74;59.43;95846.91;4927919;28;20225;-91
2021/11/19 00:11:47;;;;;;;13.15;10.23;;;8.50;75.60;;;7.81;59.63;95847.97;4943784;28;20203;-92
2021/11/19 00:14:16;;;;;;;13.35;9.88;;;8.50;74.90;;;7.83;59.62;95854.66;4943938;28;20219;-91
2021/11/19 00:16:49;;;;;;;13.10;10.10;;;8.50;74.80;;;7.79;59.58;95837.66;4959211;28;20207;-92
2021/11/19 00:19:17;;;;;;;14.65;10.13;;;8.50;74.80;;;7.88;59.50;95840.34;4959769;28;20254;-92
2021/11/19 00:21:45;;;;;;;15.23;10.38;;;8.60;74.90;;;7.87;59.55;95829.06;4959628;28;20203;-91
2021/11/19 00:24:13;;;;;;;14.25;10.35;;;8.60;74.90;;;7.91;59.77;95833.03;4959426;28;20309;-92
2021/11/19 00:26:41;;;;;;;14.30;10.73;;;8.60;74.90;;;7.89;59.80;95834.16;4959679;28;20191;-91
2021/11/19 00:29:11;;;;;;;14.57;10.18;;;8.60;74.90;;;7.93;59.48;95849.34;4942577;28;20277;-91
2021/11/19 00:31:40;;;;;;;14.23;10.70;;;8.70;75.00;;;7.95;59.51;95852.63;4943578;28;20203;-92
2021/11/19 00:34:13;;;;;;;13.23;10.25;;;8.70;75.00;;;7.96;59.39;95853.47;4943487;28;20226;-92
2021/11/19 00:36:41;;;;;;;13.70;9.85;;;8.70;75.00;;;7.98;59.60;95859.34;4943317;28;20233;-91
2021/11/19 00:39:16;;;;;;;13.60;10.18;;;8.70;75.70;;;7.98;59.61;95854.13;4943457;28;20689;-91
2021/11/19 00:41:47;;;;;;;13.48;10.15;;;8.70;75.00;;;7.97;59.46;95842.03;4942990;28;20206;-88
2021/11/19 00:44:16;;;;;;;13.38;10.02;;;8.70;75.00;;;8.05;59.70;95851.75;4927104;28;20326;-92
2021/11/19 00:46:46;;;;;;;12.18;9.60;;;8.70;75.00;;;8.03;59.45;95849.25;4943325;28;20289;-91
2021/11/19 00:49:16;;;;;;;11.90;9.48;;;8.70;75.00;;;8.00;59.35;95834.72;4943063;28;20783;-92
2021/11/19 00:51:48;;;;;;;11.60;9.20;;;8.80;75.00;;;8.06;59.61;95837.72;4943154;28;20211;-92
2021/11/19 00:54:16;;;;;;;11.75;9.45;;;8.80;75.00;;;8.06;59.45;95819.41;4942308;28;20217;-93
2021/11/19 00:56:50;;;;;;;11.70;9.70;;;8.80;75.00;;;8.05;59.23;95821.19;4943199;28;20207;-92
2021/11/19 00:59:20;;;;;;;12.27;9.38;;;8.80;75.00;;;8.10;59.39;95826.78;4942704;28;20238;-93
2021/11/19 01:02:21;;;;;;;13.15;9.02;;;8.80;74.90;;;8.08;59.30;95802.63;4942469;28;20233;-91
2021/11/19 01:04:52;;;;;;;11.57;8.73;;;8.80;74.90;;;8.11;59.41;95811.94;4940961;28;20222;-92
2021/11/19 01:07:23;;;;;;;11.55;9.30;;;8.80;74.70;;;8.07;59.24;95813.19;4926869;28;20217;-91
2021/11/19 01:09:57;;;;;;;11.20;9.30;;;8.80;74.70;;;8.13;59.13;95813.41;4942917;28;20218;-91
2021/11/19 01:12:30;;;;;;;11.20;9.07;;;8.80;74.70;;;8.04;59.29;95814.31;4942866;28;20207;-92
2021/11/19 01:15:14;;;;;;;11.85;9.30;;;8.90;74.70;;;8.11;59.51;95827.59;4942206;28;20322;-90
2021/11/19 01:18:00;;;;;;;12.27;9.00;;;8.80;74.50;;;8.05;58.97;95818.59;4942400;28;20202;-92
2021/11/19 01:20:53;;;;;;;12.27;9.00;;;8.90;74.40;;;8.09;58.99;95840.84;4943991;28;20199;-91
2021/11/19 01:23:24;;;;;;;12.68;9.10;;;8.90;75.30;;;8.11;58.87;95851.13;4942438;28;20198;-91
2021/11/19 01:26:00;;;;;;;9.18;8.00;;;8.90;74.30;;;8.08;59.09;95841.81;4942537;28;20203;-92
2021/11/19 01:28:28;;;;;;;10.13;7.88;;;8.90;74.50;;;8.13;59.24;95846.53;4942608;28;20225;-91
2021/11/19 01:31:13;;;;;;;9.65;8.20;;;8.80;74.40;;;8.11;59.07;95851.94;4942400;28;20198;-91
2021/11/19 01:33:42;;;;;;;8.95;7.85;;;8.90;74.40;;;8.08;59.28;95851.41;4926474;28;20222;-91
2021/11/19 01:36:26;;;;;;;9.80;7.63;;;8.80;74.20;;;8.11;59.25;95864.19;4943970;28;20199;-92
2021/11/19 01:39:08;;;;;;;10.40;8.32;;;8.90;74.40;;;8.04;58.72;95856.13;4946688;28;20318;-90
2021/11/19 01:42:25;;;;;;;9.10;7.97;;;8.90;74.30;;;8.14;58.91;95850.81;4944656;28;20378;-91
2021/11/19 01:45:12;;;;;;;9.30;7.65;;;8.80;74.30;;;8.16;58.86;95847.06;4942088;28;20223;-92
2021/11/19 01:47:51;;;;;;;10.93;8.57;;;8.90;74.40;;;8.16;58.76;95851.47;4923539;29;20208;-91
2021/11/19 01:50:45;;;;;;;10.57;7.65;;;8.90;74.20;;;8.15;58.99;95842.84;4938610;29;20265;-91
2021/11/19 01:53:20;;;;;;;11.82;8.65;;;8.90;74.30;;;8.20;59.22;95842.34;4907719;28;20210;-92
2021/11/19 01:56:03;;;;;;;10.23;7.88;;;8.90;74.30;;;8.20;58.97;95855.41;4941322;28;20220;-92
2021/11/19 01:59:01;;;;;;;10.45;8.40;;;8.90;74.30;;;8.15;58.89;95842.00;4941724;28;20230;-90
2021/11/19 02:01:54;;;;;;;10.50;8.73;;;8.90;74.20;;;8.11;58.74;95832.84;4942139;28;20715;-91
2021/11/19 02:04:31;;;;;;;8.48;7.32;;;8.90;74.20;;;8.13;58.82;95836.94;4941923;28;20308;-91
2021/11/19 02:07:06;;;;;;;9.90;8.00;;;8.90;74.10;;;8.17;58.82;95834.84;4941938;28;20194;-91
2021/11/19 02:10:35;;;;;;;8.65;7.72;;;8.90;74.30;;;8.15;59.06;95835.00;4945182;28;20317;-91
2021/11/19 02:13:26;;;;;;;9.55;7.88;;;8.90;74.20;;;8.14;58.95;95830.75;4942163;28;20793;-92
2021/11/19 02:16:03;;;;;;;10.75;8.10;;;8.90;74.30;;;8.11;59.09;95835.44;4957115;28;20265;-91
2021/11/19 02:18:35;;;;;;;10.43;7.72;;;8.90;74.30;;;8.15;59.17;95826.31;4938322;28;20701;-91
2021/11/19 02:21:19;;;;;;;10.70;8.73;;;8.90;74.30;;;8.11;58.93;95815.34;4959175;28;20289;-92
2021/11/19 02:24:05;;;;;;;10.18;7.75;;;8.90;74.30;;;8.05;59.06;95802.91;4939631;28;20210;-91
2021/11/19 02:26:48;;;;;;;11.77;8.60;;;8.90;74.20;;;8.08;59.02;95820.91;4941730;28;20199;-91
2021/11/19 02:29:20;;;;;;;10.63;8.73;;;8.90;74.30;;;8.06;59.29;95808.97;4937066;28;20270;-91
2021/11/19 02:32:01;;;;;;;9.80;7.38;;;8.90;74.30;;;8.05;59.37;95792.47;4936216;28;20202;-92
2021/11/19 02:34:40;;;;;;;9.88;7.70;;;8.90;74.40;;;8.07;59.31;95805.34;4948487;28;20214;-92
2021/11/19 02:37:23;;;;;;;9.73;8.18;;;8.80;74.30;;;8.06;59.46;95812.38;4931588;28;20289;-92
2021/11/19 02:40:00;;;;;;;9.65;8.50;;;8.80;74.40;;;8.04;59.31;95808.28;4945942;28;20233;-92
2021/11/19 02:42:38;;;;;;;10.32;8.65;;;8.80;74.50;;;7.99;59.46;95811.34;4959753;28;20213;-91
2021/11/19 02:45:21;;;;;;;11.25;8.93;;;8.80;74.60;;;8.06;59.52;95822.03;4944921;28;20218;-93
2021/11/19 02:47:52;;;;;;;10.88;8.55;;;8.80;74.60;;;8.09;59.32;95817.31;4960837;28;20748;-92
2021/11/19 02:50:22;;;;;;;10.48;8.30;;;8.90;75.00;;;8.12;59.36;95803.94;4946516;28;20265;-91
2021/11/19 02:52:57;;;;;;;13.02;9.35;;;8.80;74.90;;;8.16;59.37;95814.91;4945146;28;20205;-89
2021/11/19 02:55:34;;;;;;;11.80;8.52;;;8.90;75.00;;;8.17;59.44;95808.69;4944387;28;20314;-92
2021/11/19 02:58:05;;;;;;;11.70;9.15;;;8.90;75.00;;;8.19;59.39;95796.31;4935620;28;20199;-91
2021/11/19 03:01:19;;;;;;;10.75;8.52;;;8.90;75.00;;;8.21;59.52;95802.19;4936552;28;20194;-91
2021/11/19 03:04:00;;;;;;;12.45;8.88;;;8.90;75.00;;;8.23;59.37;95797.63;4941654;28;20377;-92
2021/11/19 03:06:27;;;;;;;11.50;9.50;;;8.90;74.80;;;8.22;59.39;95810.84;4944867;28;20198;-92
2021/11/19 03:08:56;;;;;;;11.05;8.80;;;8.90;74.80;;;8.24;59.42;95809.72;4948158;28;20214;-91
2021/11/19 03:11:24;;;;;;;11.20;9.02;;;9.00;75.00;;;8.26;59.54;95806.94;4944343;28;20214;-92
2021/11/19 03:13:52;;;;;;;13.73;9.63;;;9.00;75.10;;;8.28;59.43;95794.56;4946805;28;20265;-91
2021/11/19 03:16:20;;;;;;;10.77;9.20;;;8.90;75.00;;;8.23;59.66;95808.06;4947328;28;20199;-90
2021/11/19 03:18:47;;;;;;;12.15;9.45;;;9.00;75.00;;;8.26;59.60;95814.78;4931308;28;20610;-92
2021/11/19 03:21:17;;;;;;;13.70;10.00;;;9.00;75.00;;;8.27;59.58;95808.59;4947389;28;20210;-90
2021/11/19 03:23:48;;;;;;;12.10;9.57;;;8.90;75.00;;;8.28;59.65;95816.28;4930964;28;20265;-90
2021/11/19 03:26:17;;;;;;;12.43;9.68;;;9.00;75.10;;;8.25;59.42;95821.81;4931876;28;20281;-89
2021/11/19 03:28:45;;;;;;;11.80;9.05;;;9.10;75.00;;;8.29;59.62;95820.53;4947169;28;20621;-91
2021/11/19 03:31:15;;;;;;;11.65;8.77;;;9.00;74.90;;;8.30;59.63;95803.88;4947227;28;20291;-92
2021/11/19 03:33:47;;;;;;;12.68;9.57;;;9.10;74.90;;;8.29;59.35;95814.50;4951008;28;20219;-91
2021/11/19 03:36:17;;;;;;;12.05;9.50;;;9.00;74.80;;;8.32;59.62;95816.78;4947875;28;20241;-91
2021/11/19 03:38:49;;;;;;;10.77;8.65;;;9.00;75.00;;;8.30;59.62;95800.41;4949058;28;20230;-92
2021/11/19 03:41:24;;;;;;;11.65;8.82;;;9.00;75.00;;;8.35;59.46;95819.09;4934824;28;20195;-91
2021/11/19 03:43:58;;;;;;;12.50;9.60;;;9.00;74.90;;;8.35;59.39;95824.31;4942492;28;20289;-90
2021/11/19 03:46:40;;;;;;;10.98;9.23;;;9.10;74.90;;;8.27;59.27;95816.44;4942260;28;20249;-91
2021/11/19 03:49:07;;;;;;;11.45;8.45;;;9.10;74.70;;;8.31;59.50;95813.34;4943545;28;20253;-90
2021/11/19 03:52:00;;;;;;;10.95;8.60;;;9.10;74.70;;;8.24;59.41;95811.50;4943146;28;20628;-92
2021/11/19 03:54:33;;;;;;;11.30;8.75;;;9.00;74.70;;;8.28;59.42;95810.22;4949448;28;20225;-91
2021/11/19 03:57:01;;;;;;;10.55;8.80;;;9.10;74.80;;;8.28;59.40;95816.28;4941711;28;20195;-91
2021/11/19 03:59:29;;;;;;;12.27;8.90;;;9.10;74.80;;;8.27;59.52;95821.66;4945743;28;20261;-85
2021/11/19 04:01:58;;;;;;;10.82;8.57;;;9.00;74.80;;;8.24;59.16;95806.28;4941392;28;20203;-85
2021/11/19 04:04:33;;;;;;;12.07;9.27;;;9.00;74.70;;;8.27;59.48;95803.38;4941415;28;20589;-85
2021/11/19 04:07:07;;;;;;;13.48;10.15;;;9.00;74.80;;;8.26;59.55;95812.19;4942164;28;20194;-85
2021/11/19 04:09:37;;;;;;;12.27;9.80;;;9.00;75.60;;;8.18;59.66;95799.88;4942450;28;20243;-85
2021/11/19 04:12:07;;;;;;;12.65;9.68;;;9.00;74.70;;;8.19;59.60;95817.22;4941814;28;20203;-85
2021/11/19 04:14:37;;;;;;;13.10;10.50;;;9.00;74.70;;;8.17;59.59;95812.13;4941499;28;20704;-86
2021/11/19 04:17:05;;;;;;;12.38;9.38;;;9.00;74.70;;;8.16;59.57;95820.13;4957534;28;20204;-86
2021/11/19 04:19:33;;;;;;;13.27;9.98;;;9.00;74.80;;;8.07;59.57;95811.41;4943348;28;20321;-86
2021/11/19 04:22:10;;;;;;;12.82;10.00;;;8.90;74.80;;;8.13;60.00;95821.25;4957525;28;20215;-85
2021/11/19 04:24:50;;;;;;;13.82;10.00;;;8.90;75.00;;;8.10;59.81;95823.34;4938004;29;20224;-85
2021/11/19 04:27:20;;;;;;;12.38;9.65;;;8.90;75.00;;;8.09;59.89;95835.59;4937815;28;20222;-86
2021/11/19 04:30:11;;;;;;;13.25;10.15;;;9.00;75.10;;;8.03;59.58;95838.81;4946353;28;20225;-86
2021/11/19 04:32:41;;;;;;;12.48;9.38;;;8.80;75.00;;;8.00;59.96;95816.41;4939431;28;20210;-85
2021/11/19 04:35:09;;;;;;;13.45;9.43;;;8.90;75.00;;;8.06;59.78;95825.44;4920181;29;20585;-86
2021/11/19 04:37:37;;;;;;;12.32;9.75;;;8.80;75.00;;;8.05;59.76;95815.16;4920820;29;20203;-86
2021/11/19 04:40:11;;;;;;;13.00;9.70;;;8.80;75.00;;;8.04;59.66;95798.66;4937100;29;20223;-86
2021/11/19 04:42:39;;;;;;;11.15;9.18;;;8.80;75.00;;;8.06;59.60;95811.59;4936622;29;20827;-86
2021/11/19 04:45:11;;;;;;;13.55;10.30;;;8.80;75.00;;;8.02;59.79;95800.63;4919739;28;20213;-85
2021/11/19 04:47:43;;;;;;;14.73;9.50;;;8.80;75.00;;;8.00;60.05;95807.78;4930397;28;20203;-84
2021/11/19 04:50:13;;;;;;;12.90;10.25;;;8.80;75.00;;;7.94;60.16;95803.97;4939283;28;20274;-86
2021/11/19 04:52:42;;;;;;;12.77;9.63;;;8.80;75.00;;;7.93;60.07;95794.50;4938379;28;20257;-85
2021/11/19 04:55:11;;;;;;;13.70;9.63;;;8.80;75.00;;;7.98;60.23;95807.94;4941839;28;20221;-85
2021/11/19 04:57:38;;;;;;;10.85;8.85;;;8.80;75.00;;;7.99;60.07;95800.91;4943166;28;20198;-85
2021/11/19 05:00:13;;;;;;;12.48;9.48;;;8.70;75.00;;;7.99;60.11;95808.75;4939334;28;20318;-86
2021/11/19 05:03:03;;;;;;;10.15;9.02;;;8.70;75.00;;;7.98;59.75;95794.88;4959636;28;20635;-85
2021/11/19 05:05:36;;;;;;;12.50;9.50;;;8.80;75.00;;;7.92;60.13;95795.50;4951396;28;20566;-86
2021/11/19 05:08:05;;;;;;;12.90;9.95;;;8.70;75.00;;;7.91;60.35;95793.84;4956574;28;20206;-85
2021/11/19 05:10:37;;;;;;;12.07;9.27;;;8.80;75.00;;;7.94;60.33;95806.59;4936602;28;20206;-85
2021/11/19 05:13:07;;;;;;;12.38;9.13;;;8.70;75.00;;;7.96;60.28;95806.47;4932228;28;20202;-84
2021/11/19 05:15:44;;;;;;;13.63;9.70;;;8.70;75.00;;;7.95;60.31;95802.19;4940887;28;20210;-84
2021/11/19 05:18:12;;;;;;;13.25;9.38;;;8.70;75.00;;;7.95;60.28;95802.19;4955592;28;20195;-85
2021/11/19 05:20:39;;;;;;;11.05;8.80;;;8.70;75.00;;;7.97;60.44;95802.84;4937839;28;20258;-84
2021/11/19 05:23:07;;;;;;;13.45;9.18;;;8.70;75.00;;;7.95;60.41;95808.22;4957860;28;20209;-85
2021/11/19 05:25:41;;;;;;;12.13;9.32;;;8.70;75.00;;;7.96;60.55;95796.81;4942523;28;20207;-84
2021/11/19 05:28:09;;;;;;;12.60;9.10;;;8.70;75.00;;;7.95;60.51;95799.59;4942296;28;20190;-84
2021/11/19 05:30:39;;;;;;;11.93;9.07;;;8.70;75.00;;;7.92;60.50;95810.31;4941951;28;20241;-85
2021/11/19 05:33:12;;;;;;;10.93;8.65;;;8.80;75.00;;;7.98;60.43;95817.56;4942142;28;20195;-85
2021/11/19 05:35:40;;;;;;;13.32;9.25;;;8.70;75.00;;;7.99;60.84;95803.53;4941595;28;20194;-85
2021/11/19 05:38:09;;;;;;;11.60;8.70;;;8.70;75.00;;;7.94;60.76;95803.97;4953968;28;20226;-85
2021/11/19 05:40:37;;;;;;;12.23;9.40;;;8.80;75.00;;;7.97;60.77;95810.69;4941571;28;20218;-84
2021/11/19 05:43:05;;;;;;;12.70;9.18;;;8.70;75.00;;;7.99;60.72;95804.31;4956416;28;20566;-85
2021/11/19 05:45:52;;;;;;;11.38;8.98;;;8.70;75.00;;;8.00;60.65;95800.75;4966511;28;20220;-84
2021/11/19 05:48:26;;;;;;;12.65;8.88;;;8.80;75.80;;;8.03;60.84;95804.84;4972196;28;20684;-85
2021/11/19 05:50:54;;;;;;;13.18;9.57;;;8.80;75.80;;;8.04;60.75;95803.88;4958272;28;20657;-83
2021/11/19 05:53:27;;;;;;;12.55;8.73;;;8.80;75.00;;;8.06;60.82;95803.75;4958450;28;20630;-83
2021/11/19 05:55:54;;;;;;;13.23;9.70;;;8.80;75.00;;;8.01;61.05;95789.31;4944357;28;20210;-83
2021/11/19 05:58:22;;;;;;;14.80;10.13;;;8.80;75.00;;;8.07;60.53;95807.97;4932467;28;20202;-83
2021/11/19 06:00:56;;;;;;;13.05;8.82;;;8.80;75.10;;;8.08;60.68;95801.78;4956261;28;20298;-84
2021/11/19 06:03:38;;;;;;;13.43;10.35;;;8.80;75.20;;;8.07;61.12;95813.19;4941267;28;20788;-83
2021/11/19 06:06:18;;;;;;;13.07;9.52;;;8.80;75.20;;;8.02;60.79;95795.38;4927293;28;20199;-82
2021/11/19 06:09:05;;;;;;;13.13;9.25;;;8.80;75.30;;;8.08;61.12;95804.38;4957261;28;20845;-83
2021/11/19 06:11:39;;;;;;;12.70;9.68;;;8.80;75.20;;;8.08;61.15;95814.84;4941486;28;20286;-85
2021/11/19 06:14:16;;;;;;;11.80;8.75;;;8.80;75.30;;;8.08;60.97;95826.13;4924463;29;20231;-85
2021/11/19 06:16:54;;;;;;;11.10;8.45;;;8.80;76.20;;;8.12;60.99;95822.22;4941305;28;20189;-85
2021/11/19 06:19:31;;;;;;;11.30;9.05;;;8.80;75.40;;;8.14;61.12;95827.28;4951405;28;20231;-84
2021/11/19 06:22:07;;;;;;;11.13;8.32;;;8.90;75.50;;;8.15;60.97;95832.38;4922389;29;20207;-84
2021/11/19 06:24:42;;;;;;;11.90;8.88;;;8.90;75.40;;;8.14;60.95;95841.19;4928997;28;20237;-84
2021/11/19 06:27:12;;;;;;;11.27;8.95;;;8.90;75.40;;;8.16;61.02;95827.97;4947727;28;20404;-83
2021/11/19 06:29:40;;;;;;;11.63;8.68;;;8.90;75.50;;;8.11;61.30;95825.00;4973159;28;20310;-84
2021/11/19 06:32:07;;;;;;;11.35;8.52;;;8.90;75.50;;;8.13;61.23;95829.09;4944437;28;20206;-84
2021/11/19 06:34:35;;;;;;;12.93;8.98;;;8.90;75.50;;;8.17;61.26;95825.19;4926304;28;20225;-84
2021/11/19 06:37:04;;;;;;;10.70;8.20;;;8.90;75.60;;;8.15;61.21;95835.00;4932412;28;20661;-84
2021/11/19 06:39:56;;;;;;;10.90;8.02;;;9.00;75.60;;;8.14;61.29;95832.50;4940244;28;20893;-84
2021/11/19 06:42:36;;;;;;;10.45;8.05;;;9.00;75.60;;;8.22;61.09;95835.19;4943357;28;20213;-85
2021/11/19 06:45:21;;;;;;;12.07;8.30;;;8.90;75.50;;;8.14;61.13;95835.97;4956659;28;20826;-84
2021/11/19 06:48:05;;;;;;;11.80;7.68;;;9.00;75.50;;;8.24;61.32;95841.09;4951808;28;20201;-85
2021/11/19 06:50:51;;;;;;;10.10;7.75;;;9.00;75.60;;;8.24;61.28;95854.16;4946277;28;20222;-84
2021/11/19 06:53:50;;;;;;;10.77;8.48;;;8.90;75.50;;;8.20;61.21;95838.94;4946663;28;20223;-85
2021/11/19 06:56:32;;;;;;;10.73;8.27;;;9.00;75.60;;;8.26;61.05;95877.50;4941445;28;20199;-85
2021/11/19 06:59:09;;;;;;;11.43;8.45;;;9.00;75.70;;;8.28;61.44;95863.31;4941965;28;20232;-85
2021/11/19 07:01:38;;;;;;;14.13;8.55;;;9.10;75.80;;;8.30;61.21;95873.59;4938185;28;20222;-84
2021/11/19 07:04:06;;;;;;;10.85;8.20;;;9.00;75.80;;;8.32;61.22;95858.59;4957760;28;20219;-84
2021/11/19 07:06:36;;;;;;;11.68;8.55;;;9.00;75.90;;;8.40;60.94;95863.88;4937657;28;20747;-84
2021/11/19 07:09:07;;;;;;;10.75;8.27;;;9.00;75.80;;;8.38;61.15;95850.13;4948637;28;20306;-84
2021/11/19 07:11:35;;;;;;;10.77;7.80;;;9.10;76.00;;;8.43;61.15;95839.22;4939413;28;20203;-84
2021/11/19 07:14:07;;;;;;;10.20;7.90;;;9.10;75.90;;;8.54;61.16;95867.75;4942288;28;20230;-84
2021/11/19 07:16:37;;;;;;;9.60;7.70;;;9.10;75.80;;;8.58;60.80;95863.03;4946980;28;20194;-85
2021/11/19 07:19:07;;;;;;;9.93;7.80;;;9.30;76.00;;;8.67;60.66;95863.88;4941841;28;20223;-84
2021/11/19 07:21:37;;;;;;;9.45;7.63;;;9.20;75.90;;;8.72;60.85;95864.25;4942800;28;20198;-83
2021/11/19 07:24:06;;;;;;;9.52;7.43;;;9.30;75.90;;;8.81;60.91;95887.66;4941874;28;20221;-84
2021/11/19 07:26:35;;;;;;;11.10;7.57;;;9.30;75.90;;;8.84;60.57;95883.91;4941842;28;20656;-84
2021/11/19 07:29:04;;;;;;;9.85;7.43;;;9.40;75.80;;;8.85;60.48;95879.50;4941622;28;20239;-84
2021/11/19 07:31:50;;;;;;;11.52;7.97;;;9.40;75.60;;;8.83;60.29;95882.28;4947736;28;20242;-84
2021/11/19 07:34:38;;;;;;;9.07;7.22;;;9.40;75.40;;;8.89;60.36;95873.78;4943163;28;20309;-82
2021/11/19 07:37:26;;;;;;;8.45;7.05;;;9.60;75.50;;;8.97;60.24;95876.44;4954852;28;20214;-84
2021/11/19 07:40:18;;;;;;;9.38;6.82;;;9.50;75.40;;;9.03;60.11;95876.78;4942936;28;20235;-82
2021/11/19 07:43:06;;;;;;;10.00;7.32;;;9.60;75.50;;;9.05;60.07;95880.88;4952440;28;20306;-83
2021/11/19 07:45:45;;;;;;;7.82;6.38;;;9.60;75.50;;;9.11;60.00;95888.09;4938300;28;20201;-83
2021/11/19 07:48:32;;;;;;;9.38;6.63;;;9.70;75.60;;;9.15;60.00;95888.59;4958891;28;20566;-82
2021/11/19 07:51:06;;;;;;;8.18;6.47;;;9.70;75.60;;;9.17;59.65;95898.91;4940310;28;20234;-81
2021/11/19 07:53:35;;;;;;;8.27;6.50;;;9.70;75.60;;;9.20;60.08;95891.56;4941513;28;20265;-81
2021/11/19 07:56:06;;;;;;;8.05;6.38;;;9.70;75.60;;;9.24;59.96;95903.38;4952013;28;20199;-82
2021/11/19 07:58:35;;;;;;;7.70;6.38;;;9.80;75.60;;;9.25;59.79;95891.94;4930967;29;20227;-81
2021/11/19 08:01:04;;;;;;;9.40;7.18;;;9.90;75.70;;;9.30;59.55;95904.50;4944265;28;20218;-82
2021/11/19 08:03:32;;;;;;;8.60;6.35;;;9.90;75.70;;;9.34;59.83;95911.09;4950032;28;20224;-81
2021/11/19 08:06:04;;;;;;;8.30;6.10;;;9.90;75.70;;;9.39;59.61;95900.16;4954481;28;20211;-81
2021/11/19 08:08:35;;;;;;;7.63;6.32;;;9.90;75.70;;;9.45;59.54;95896.88;4942186;28;20583;-82
2021/11/19 08:11:12;;;;;;;7.72;5.45;;;10.00;74.60;;;9.49;59.50;95898.19;4949498;28;20289;-83
2021/11/19 08:13:41;;;;;;;7.32;5.65;;;10.00;74.60;;;9.53;59.52;95901.31;4958771;28;20262;-82
2021/11/19 08:16:09;;;;;;;7.75;5.63;;;10.00;74.40;;;9.54;59.41;95895.09;4934085;29;20223;-82
2021/11/19 08:19:00;;;;;;;6.47;5.60;;;10.10;74.50;;;9.60;59.37;95913.59;4951588;28;20221;-81
2021/11/19 08:21:28;;;;;;;6.45;5.50;;;10.10;74.30;;;9.64;59.43;95908.84;4941597;28;20226;-83
2021/11/19 08:24:00;;;;;;;6.60;5.65;;;10.20;74.30;;;9.68;59.21;95902.34;4951289;28;20253;-81
2021/11/19 08:26:41;;;;;;;7.70;5.80;;;10.20;74.20;;;9.72;59.40;95915.94;4938846;28;21027;-82
2021/11/19 08:29:17;;;;;;;8.02;5.75;;;10.20;74.00;;;9.74;58.84;95912.16;4937819;28;20210;-83
2021/11/19 08:31:45;;;;;;;7.68;5.93;;;10.30;74.00;;;9.80;59.35;95913.28;4938345;28;20277;-82
2021/11/19 08:34:13;;;;;;;7.90;5.80;;;10.30;74.20;;;9.83;59.19;95915.59;4938119;28;20238;-81
2021/11/19 08:36:41;;;;;;;7.68;5.70;;;10.50;74.30;;;9.88;59.11;95917.75;4958761;28;20200;-83
2021/11/19 08:39:11;;;;;;;7.53;5.80;;;10.40;74.00;;;9.92;59.06;95935.59;4938156;28;20625;-81
2021/11/19 08:41:39;;;;;;;6.20;5.60;;;10.50;74.00;;;9.93;58.98;95941.66;4940154;28;20246;-82
2021/11/19 08:44:07;;;;;;;6.85;5.63;;;10.40;73.90;;;9.94;58.57;95931.00;4941004;28;20214;-82
2021/11/19 08:46:40;;;;;;;6.97;4.93;;;10.50;73.80;;;9.99;59.05;95927.09;4940638;28;20575;-81
2021/11/19 08:49:28;;;;;;;6.30;5.03;;;10.50;73.70;;;9.97;58.88;95924.63;4939273;28;20700;-83
2021/11/19 08:51:56;;;;;;;6.45;4.80;;;10.50;73.70;;;10.03;58.98;95921.38;4935919;28;20701;-82
2021/11/19 08:54:24;;;;;;;7.60;5.18;;;10.60;73.80;;;10.08;58.86;95929.56;4953520;28;20305;-83
2021/11/19 08:56:59;;;;;;;6.50;4.93;;;10.60;73.80;;;10.08;59.28;95918.22;4952556;28;20844;-82
2021/11/19 08:59:31;;;;;;;6.85;5.03;;;10.60;73.60;;;10.15;58.83;95924.47;4940005;28;20222;-83
2021/11/19 09:02:00;;;;;;;7.05;5.10;;;10.70;73.80;;;10.19;58.93;95907.44;4940747;28;20751;-82
2021/11/19 09:04:48;;;;;;;5.60;5.00;;;10.70;73.90;;;10.34;59.08;95912.00;4957980;28;20229;-81
2021/11/19 09:07:16;;;;;;;6.15;4.72;;;10.80;74.00;;;10.43;59.07;95911.03;4925489;28;20286;-81
2021/11/19 09:09:46;;;;;;;5.13;4.63;;;10.80;73.90;;;10.48;58.74;95919.22;4938024;28;20264;-81
2021/11/19 09:12:15;;;;;;;5.60;4.93;;;10.90;74.00;;;10.52;58.62;95920.56;4953947;28;20187;-81
2021/11/19 09:14:43;;;;;;;6.25;4.93;;;10.90;73.90;;;10.56;58.67;95924.47;4938252;28;20671;-83
2021/11/19 09:17:14;;;;;;;5.10;4.47;;;11.00;74.00;;;10.66;58.82;95926.09;4937497;28;20195;-82
2021/11/19 09:20:00;;;;;;;7.35;4.45;;;11.10;74.00;;;10.68;58.49;95927.56;4954950;28;20230;-81
2021/11/19 09:22:36;;;;;;;6.35;4.53;;;11.10;73.70;;;10.69;58.22;95923.13;4937160;28;20202;-81
2021/11/19 09:25:10;;;;;;;5.38;4.32;;;11.10;73.60;;;10.72;58.48;95918.38;4938551;28;20279;-82
2021/11/19 09:27:39;;;;;;;6.53;4.15;;;11.20;73.70;;;10.80;58.29;95933.28;4955206;28;20197;-82
2021/11/19 09:30:29;;;;;;;5.97;4.32;;;11.20;73.70;;;10.91;58.67;95932.09;4957491;28;20582;-83
2021/11/19 09:32:59;;;;;;;4.18;3.60;;;11.30;73.80;;;10.99;58.25;95934.69;4941333;28;20194;-82
2021/11/19 09:35:30;;;;;;;4.95;4.07;;;11.30;73.80;;;11.08;58.25;95932.88;4939257;28;20238;-81
2021/11/19 09:37:59;;;;;;;4.90;4.15;;;11.40;73.80;;;11.13;57.72;95934.97;4956979;28;20680;-82
2021/11/19 09:40:47;;;;;;;7.50;4.78;;;11.50;73.60;;;11.19;57.98;95932.50;4942246;28;20759;-82
2021/11/19 09:43:43;;;;;;;6.00;5.03;;;11.60;73.50;;;11.29;58.29;95926.22;4945556;28;20666;-82
2021/11/19 09:46:47;;;;;;;6.47;4.00;;;11.60;73.70;;;11.40;57.92;95925.03;4929042;28;20198;-82
2021/11/19 09:49:29;;;;;;;4.70;3.90;;;11.70;73.70;;;11.45;57.69;95928.78;4955990;28;20224;-81
2021/11/19 09:52:25;;;;;;;4.47;3.90;;;11.80;73.50;;;11.50;57.66;95923.03;4962580;28;20191;-81
2021/11/19 09:55:41;;;;;;;5.82;4.35;;;11.80;73.40;;;11.52;57.34;95934.16;4954680;28;20777;-82
2021/11/19 09:58:48;;;;;;;4.75;3.90;;;11.90;73.10;;;11.52;57.70;95913.97;4940220;28;20194;-81
2021/11/19 10:01:36;;;;;;;4.40;3.75;;;11.90;73.10;;;11.58;57.68;95909.81;4956327;28;20308;-82
2021/11/19 10:04:40;;;;;;;5.93;3.60;;;12.00;73.20;;;11.68;57.80;95914.84;4937418;29;20314;-82
2021/11/19 10:07:32;;;;;;;4.55;4.13;;;12.00;73.30;;;11.72;57.30;95913.53;4961379;28;20186;-82
2021/11/19 10:10:29;;;;;;;5.25;4.20;;;12.10;73.10;;;11.77;57.28;95911.19;4972368;28;20317;-81
2021/11/19 10:13:21;;;;;;;4.43;3.50;;;12.10;73.00;;;11.85;57.44;95903.25;4941032;28;20284;-82
2021/11/19 10:16:03;;;;;;;4.88;3.70;;;12.20;73.20;;;11.93;57.28;95897.09;4972695;28;20198;-80
2021/11/19 10:18:52;;;;;;;5.57;4.53;;;12.20;73.00;;;11.99;56.78;95895.63;4956234;28;20222;-82
2021/11/19 10:21:35;;;;;;;5.30;4.80;;;12.30;72.80;;;12.10;56.91;95887.31;4954979;28;20229;-82
2021/11/19 10:25:09;;;;;;;4.88;3.85;;;12.40;73.00;;;12.16;56.40;95883.97;4938625;28;20226;-82
2021/11/19 10:27:46;;;;;;;4.72;3.80;;;12.50;72.80;;;12.23;56.11;95883.25;4897234;29;20200;-82
2021/11/19 10:30:38;;;;;;;4.03;3.45;;;12.70;72.80;;;12.31;56.07;95884.00;4932307;28;20284;-80
2021/11/19 10:33:29;;;;;;;4.57;4.15;;;12.60;72.60;;;12.37;56.24;95864.06;4955569;28;20241;-83
2021/11/19 10:36:33;;;;;;;5.18;3.88;;;12.70;72.50;;;12.43;55.87;95870.44;4936719;28;20257;-82
2021/11/19 10:39:41;;;;;;;3.80;3.38;;;12.80;72.50;;;12.44;55.86;95859.72;4949732;28;20316;-82
2021/11/19 10:42:54;;;;;;;4.25;3.70;;;12.80;72.30;;;12.47;55.56;95851.47;4957416;28;20245;-83
2021/11/19 10:46:08;;;;;;;4.18;3.58;;;12.90;72.20;;;12.51;55.84;95859.00;4949072;28;20292;-82
2021/11/19 10:48:53;;;;;;;4.28;3.38;;;12.90;72.20;;;12.58;55.51;95842.28;4957635;28;20588;-81
2021/11/19 10:51:56;;;;;;;3.70;3.20;;;12.90;72.10;;;12.64;55.91;95844.19;4959944;28;20206;-82
2021/11/19 10:54:55;;;;;;;3.55;3.25;;;13.00;72.30;;;12.71;55.56;95846.13;4942712;28;20218;-82
2021/11/19 10:58:10;;;;;;;4.13;3.15;;;13.00;72.10;;;12.76;55.78;95843.75;4958656;28;20202;-82
2021/11/19 11:01:02;;;;;;;3.78;3.17;;;13.10;72.10;;;12.84;56.04;95853.38;4959730;28;20218;-82
2021/11/19 11:03:55;;;;;;;3.67;3.33;;;13.20;72.30;;;12.87;55.41;95853.03;4959413;28;20704;-80
2021/11/19 11:06:42;;;;;;;5.22;3.38;;;13.20;71.90;;;12.85;55.55;95849.75;4959959;28;20194;-79
2021/11/19 11:09:28;;;;;;;4.50;3.40;;;13.20;71.70;;;12.80;55.13;95842.38;4943740;28;20240;-82